Viljujsk, Russia
Current Conditions -  °F | °C
As of 6:30 AM on Friday 28 Nov 2014 (Local Time) from UEEE Reporting Station
Light Snow Light Snow  
Wind Chill: -22°   Ceiling: 10000
Heat Index: -22°   Visibility: 6mi
Dew Point: -27°   Wind: 0mph
Humidity: 76%   Direction: NA
Pressure: 30.06"   Gusts: NA
Location:  63.76°N, 121.62°E
Report Text: UEEE 272130Z 00000MPS 9999 -SN OVC100 M30/M33 Q1018 NOSIG RMKQFE755 23490150
Loading
Personal Weather Stations






























Interactive Weather Map New forecast layout! Learn more

10-Day Weather Forecast

Advertisements
Track Severe Weather on mobile